Flight Track Log - Related Links

Times and Time Zones

All times are in EDT time to prevent confusion due to time zone crossing. See the EGF2794 flight status page for this flight to view local times or setup timezone preferences in your user account.

Time Position Orientation Groundspeed Altitude Reporting Facility
EDT Latitude Longitude Course Direction KTS MPH feet Rate Location/Type
Fri 08:27:58 PM 30.4358 -89.1242 288° West 180 207 2,500  Level Houston Center
Fri 08:28:59 PM 30.4522 -89.1883 287° West 198 228 4,200 1,805 Climbing Houston Center
Fri 08:29:00 PM 30.4750 -89.3376 288° West  Level FlightAware Approximate
Fri 08:30:00 PM 30.4948 -89.4292 286° West  Level FlightAware Approximate
Fri 08:30:01 PM 30.4733 -89.2669 287° West 244 281 6,200  Level Houston Center
Fri 08:31:00 PM 30.5177 -89.5206 286° West  Level FlightAware Approximate
Fri 08:31:03 PM 30.4994 -89.3683 287° West 269 310 8,900  Level Houston Center
Fri 08:32:00 PM 30.5405 -89.6119 286° West  Level FlightAware Approximate
Fri 08:32:05 PM 30.5219 -89.4531 287° West 275 316 11,200  Level Houston Center
Fri 08:33:00 PM 30.5673 -89.7188 288° West  Level FlightAware Approximate
Fri 08:33:07 PM 30.5450 -89.5433 287° West 288 331 12,500  Level Houston Center
Fri 08:34:09 PM 30.5686 -89.6394 286° West 307 353 14,000 1,548 Climbing Houston Center
Fri 08:35:11 PM 30.5939 -89.7383 287° West 320 368 15,700 1,659 Climbing Houston Center
Fri 08:36:12 PM 30.6239 -89.8553 287° West 321 369 17,400 1,805 Climbing Houston Center
Fri 08:37:14 PM 30.6492 -89.9558 286° West 326 375 19,400 2,129 Climbing Houston Center
Fri 08:38:16 PM 30.6722 -90.0489 286° West 306 352 21,800 1,645 Climbing Houston Center
Fri 08:39:18 PM 30.6956 -90.1433 286° West 307 353 22,800 968 Climbing Houston Center
Fri 08:40:20 PM 30.7208 -90.2442 286° West 325 374 23,800 1,016 Climbing Houston Center
Fri 08:41:22 PM 30.7514 -90.3703 286° West 339 390 24,900 1,016 Climbing Houston Center
Fri 08:42:24 PM 30.7772 -90.4775 286° West 346 398 25,900 976 Climbing Houston Center
Fri 08:43:25 PM 30.8039 -90.5861 286° West 348 400 26,900 927 Climbing Houston Center
Fri 08:44:27 PM 30.8303 -90.6947 286° West 349 402 27,800 871 Climbing Houston Center
Fri 08:45:29 PM 30.8572 -90.8028 286° West 349 402 28,700 919 Climbing Houston Center
Fri 08:46:31 PM 30.8828 -90.9111 285° West 348 400 29,700 823 Climbing Houston Center
Fri 08:47:33 PM 30.9092 -91.0225 285° West 356 410 30,400 774 Climbing Houston Center
Fri 08:48:35 PM 30.9469 -91.1414 290° West 361 415 31,300 774 Climbing Houston Center
Fri 08:49:37 PM 30.9839 -91.2531 291° West 368 423 32,000 780 Climbing Houston Center
Fri 08:50:38 PM 31.0239 -91.3808 290° West 376 433 32,900 878 Climbing Houston Center
Fri 08:51:40 PM 31.0614 -91.5058 289° West 377 434 33,800 532 Climbing Houston Center
Fri 08:52:42 PM 31.0958 -91.6189 290° West 372 428 34,000 97 Climbing Houston Center
Fri 08:53:44 PM 31.1292 -91.7319 289° West 370 426 34,000  Level Houston Center
Fri 08:54:46 PM 31.1633 -91.8450 289° West 369 425 34,000  Level Houston Center
Fri 08:55:48 PM 31.1983 -91.9586 290° West 372 428 34,000  Level Houston Center
Fri 08:56:49 PM 31.2314 -92.0706 289° West 368 423 34,000  Level Houston Center
Fri 08:57:51 PM 31.2722 -92.2072 289° West 370 426 34,000  Level Houston Center
Fri 08:58:53 PM 31.3064 -92.3192 290° West 370 426 34,000  Level Houston Center
Fri 08:59:55 PM 31.3397 -92.4331 289° West 370 426 34,000  Level Houston Center
Fri 09:00:57 PM 31.3739 -92.5458 290° West 370 426 34,000  Level Houston Center
Fri 09:01:58 PM 31.4103 -92.6611 290° West 376 433 34,000  Level Houston Center
Fri 09:03:00 PM 31.4422 -92.7725 289° West 367 422 34,000  Level Houston Center
Fri 09:04:02 PM 31.4822 -92.9081 289° West 368 423 34,000  Level Houston Center
Fri 09:05:03 PM 31.5158 -93.0208 289° West 368 423 34,000  Level Houston Center
Fri 09:06:05 PM 31.5486 -93.1322 289° West 365 420 34,000  Level Houston Center
Fri 09:07:07 PM 31.5817 -93.2444 289° West 366 421 34,000  Level Houston Center
Fri 09:08:08 PM 31.6192 -93.3717 289° West 365 420 34,000  Level Houston Center
Fri 09:08:51 PM 31.6394 -93.4433 288° West 361 415 34,000  Level Fort Worth Center
Fri 09:09:52 PM 31.6722 -93.5592 288° West 361 415 34,000  Level Fort Worth Center
Fri 09:10:51 PM 31.7047 -93.6703 289° West 361 415 34,000  Level Fort Worth Center
Fri 09:11:51 PM 31.7353 -93.7861 287° West 361 415 34,000  Level Fort Worth Center
Fri 09:12:51 PM 31.7636 -93.8975 287° West 361 415 34,000  Level Fort Worth Center
Fri 09:13:51 PM 31.7856 -94.0139 283° West 361 415 34,000  Level Fort Worth Center
Fri 09:14:51 PM 31.8117 -94.1400 284° West 361 415 34,000 -150 Level Fort Worth Center
Fri 09:15:51 PM 31.8336 -94.2567 283° West 361 415 33,700 -397 Descending Fort Worth Center
Fri 09:16:52 PM 31.8553 -94.3708 283° West 361 415 33,200 -400 Descending Fort Worth Center
Fri 09:17:51 PM 31.8767 -94.4850 282° West 361 415 32,900 -555 Descending Fort Worth Center
Fri 09:18:51 PM 31.9003 -94.6017 283° West 367 422 32,100 -850 Descending Fort Worth Center
Fri 09:19:51 PM 31.9214 -94.7161 282° West 367 422 31,200 -950 Descending Fort Worth Center
Fri 09:20:51 PM 31.9447 -94.8306 284° West 372 428 30,200 -1,050 Descending Fort Worth Center
Fri 09:21:51 PM 31.9658 -94.9425 283° West 367 422 29,100 -1,100 Descending Fort Worth Center
Fri 09:22:51 PM 31.9867 -95.0572 282° West 367 422 28,000 -1,150 Descending Fort Worth Center
Fri 09:23:51 PM 32.0097 -95.1742 283° West 367 422 26,800 -1,250 Descending Fort Worth Center
Fri 09:24:51 PM 32.0306 -95.2936 282° West 367 422 25,500 -1,350 Descending Fort Worth Center
Fri 09:25:51 PM 32.0514 -95.4108 282° West 372 428 24,100 -1,500 Descending Fort Worth Center
Fri 09:26:51 PM 32.0739 -95.5256 283° West 372 428 22,500 -1,600 Descending Fort Worth Center
Fri 09:27:51 PM 32.0903 -95.6431 279° West 367 422 20,900 -1,550 Descending Fort Worth Center
Fri 09:28:51 PM 32.1106 -95.7553 282° West 367 422 19,400 -1,500 Descending Fort Worth Center
Fri 09:29:51 PM 32.1286 -95.8678 281° West 361 415 17,900 -1,550 Descending Fort Worth Center
Fri 09:30:51 PM 32.1447 -95.9731 280° West 342 394 16,300 -1,550 Descending Fort Worth Center
Fri 09:31:51 PM 32.1625 -96.0858 281° West 342 394 14,800 -1,500 Descending Fort Worth Center
Fri 09:32:51 PM 32.1803 -96.1958 281° West 337 388 13,300 -1,450 Descending Fort Worth Center
Fri 09:33:51 PM 32.2375 -96.2811 308° West 330 380 11,900 -1,150 Descending Fort Worth Center
Fri 09:34:51 PM 32.2967 -96.3492 316° Northwest 336 387 11,000 -450 Descending Fort Worth Center
Fri 09:35:51 PM 32.3556 -96.4222 314° West 299 344 11,000  Level Fort Worth Center
Fri 09:36:51 PM 32.3956 -96.4686 316° Northwest 243 280 11,000 -850 Level Fort Worth Center
Fri 09:37:51 PM 32.4483 -96.5297 316° Northwest 228 262 9,300 -1,500 Descending Fort Worth Center
Fri 09:38:51 PM 32.4903 -96.5808 314° West 235 270 8,000 -1,300 Descending Fort Worth Center
Fri 09:39:51 PM 32.5450 -96.6444 316° Northwest 243 280 6,700 -1,200 Descending Fort Worth Center
Fri 09:40:51 PM 32.5933 -96.6933 320° Northwest 248 285 5,600 -1,150 Descending Fort Worth Center
Fri 09:41:51 PM 32.6564 -96.7447 326° Northwest 248 285 4,400 -1,034 Descending Fort Worth Center
Fri 09:42:47 PM 32.7167 -96.7833 332° Northwest 247 284 3,600 -857 Descending Dallas / Fort Worth TRACON

Login

Don't have an account? Register now (free) for customized features, flight alerts, and more!